createdAt,value
2022-10-18T00:00:51.785Z,68.14
2022-10-18T00:03:20.090Z,68.28
2022-10-18T00:05:48.868Z,67.99
2022-10-18T00:08:17.410Z,67.95
2022-10-18T00:10:45.516Z,68.15
2022-10-18T00:13:12.952Z,68.79
2022-10-18T00:15:40.455Z,68.66
2022-10-18T00:18:08.149Z,68.51
2022-10-18T00:20:35.551Z,68.55
2022-10-18T00:23:03.163Z,68.56
2022-10-18T00:25:30.841Z,68.46
2022-10-18T00:27:58.341Z,68.69
2022-10-18T00:30:25.936Z,68.89
2022-10-18T00:32:53.636Z,68.98
2022-10-18T00:35:21.040Z,68.87
2022-10-18T00:37:48.404Z,68.79
2022-10-18T00:40:16.167Z,68.94
2022-10-18T00:42:43.556Z,68.66
2022-10-18T00:45:24.371Z,69.05
2022-10-18T00:47:56.557Z,69.13
2022-10-18T00:50:26.552Z,68.69
2022-10-18T00:52:58.466Z,69.31
2022-10-18T00:55:27.646Z,69.60
2022-10-18T00:57:55.921Z,69.49
2022-10-18T01:00:24.145Z,69.23
2022-10-18T01:02:52.007Z,69.40
2022-10-18T01:05:20.172Z,69.45
2022-10-18T01:07:47.476Z,70.00
2022-10-18T01:10:49.162Z,69.98
2022-10-18T01:14:06.496Z,69.94
2022-10-18T01:17:01.160Z,69.79
2022-10-18T01:19:53.603Z,70.03
2022-10-18T01:22:26.001Z,69.56
2022-10-18T01:27:51.015Z,70.52
2022-10-18T01:30:24.580Z,70.87
2022-10-18T01:32:57.918Z,70.65
2022-10-18T01:35:32.188Z,70.83
2022-10-18T01:38:05.457Z,71.12
2022-10-18T01:40:35.344Z,70.41
2022-10-18T01:43:04.650Z,70.14
2022-10-18T01:45:33.131Z,69.85
2022-10-18T01:48:02.115Z,69.35
2022-10-18T01:50:32.184Z,68.91
2022-10-18T01:53:00.047Z,68.60
2022-10-18T01:55:41.061Z,68.47
2022-10-18T01:58:08.737Z,68.13
2022-10-18T02:00:44.240Z,67.89
2022-10-18T02:03:23.871Z,67.65
2022-10-18T02:06:21.817Z,67.75
2022-10-18T02:09:04.415Z,67.49
2022-10-18T02:11:34.746Z,68.05
2022-10-18T02:14:12.722Z,68.59
2022-10-18T02:16:54.988Z,68.50
2022-10-18T02:19:30.990Z,68.99
2022-10-18T02:21:59.593Z,68.81
2022-10-18T02:24:34.421Z,68.71
2022-10-18T02:27:02.330Z,68.66
2022-10-18T02:29:31.858Z,68.63
2022-10-18T02:32:04.470Z,68.80
2022-10-18T02:34:45.310Z,68.99
2022-10-18T02:37:15.479Z,69.33
2022-10-18T02:39:47.446Z,69.27
2022-10-18T02:42:15.396Z,69.71
2022-10-18T02:44:43.104Z,69.92
2022-10-18T02:47:11.525Z,69.84
2022-10-18T02:49:38.952Z,69.97
2022-10-18T02:52:06.716Z,69.81
2022-10-18T02:54:34.141Z,69.96
2022-10-18T02:57:01.560Z,70.00
2022-10-18T02:59:29.245Z,69.91
2022-10-18T03:01:56.677Z,70.19
2022-10-18T03:04:24.236Z,70.25
2022-10-18T03:06:51.965Z,70.75
2022-10-18T03:09:19.364Z,70.88
2022-10-18T03:11:46.754Z,71.05
2022-10-18T03:14:14.561Z,71.58
2022-10-18T03:16:41.941Z,71.44
2022-10-18T03:19:09.336Z,71.18
2022-10-18T03:21:37.024Z,71.26
2022-10-18T03:24:04.832Z,71.28
2022-10-18T03:26:32.530Z,71.24
2022-10-18T03:29:00.219Z,71.44
2022-10-18T03:31:27.778Z,71.64
2022-10-18T03:33:55.206Z,71.26
2022-10-18T03:36:22.902Z,71.54
2022-10-18T03:38:50.419Z,71.50
2022-10-18T03:41:17.808Z,71.65
2022-10-18T03:43:45.836Z,71.37
2022-10-18T03:46:13.607Z,71.34
2022-10-18T03:48:41.071Z,72.04
2022-10-18T03:51:08.785Z,72.65
2022-10-18T03:53:36.195Z,72.39
2022-10-18T03:56:03.683Z,72.23
2022-10-18T03:58:31.400Z,71.91
2022-10-18T04:00:58.824Z,71.79
2022-10-18T04:03:26.601Z,71.58
2022-10-18T04:05:54.026Z,71.38
2022-10-18T04:08:21.528Z,71.35
2022-10-18T04:10:49.244Z,71.61
2022-10-18T04:13:16.627Z,71.77
2022-10-18T04:15:44.084Z,72.11
2022-10-18T04:18:11.775Z,72.03
2022-10-18T04:20:39.165Z,71.87
2022-10-18T04:23:06.804Z,72.02
2022-10-18T04:25:34.511Z,71.84
2022-10-18T04:28:01.974Z,72.11
2022-10-18T04:30:29.346Z,72.01
2022-10-18T04:32:56.995Z,72.42
2022-10-18T04:35:26.040Z,72.53
2022-10-18T04:37:53.429Z,72.03
2022-10-18T04:40:21.557Z,71.94
2022-10-18T04:42:48.995Z,72.49
2022-10-18T04:45:16.379Z,72.69
2022-10-18T04:47:44.035Z,72.42
2022-10-18T04:50:11.417Z,72.91
2022-10-18T04:52:38.879Z,72.82
2022-10-18T04:55:06.998Z,73.59
2022-10-18T04:57:34.613Z,73.44
2022-10-18T05:00:02.412Z,73.61
2022-10-18T05:02:30.384Z,73.84
2022-10-18T05:04:58.099Z,73.77
2022-10-18T05:07:25.533Z,74.09
2022-10-18T05:09:53.191Z,73.69
2022-10-18T05:12:20.701Z,73.68
2022-10-18T05:14:48.469Z,74.06
2022-10-18T05:17:16.156Z,73.48
2022-10-18T05:19:43.552Z,73.66
2022-10-18T05:22:10.923Z,73.84
2022-10-18T05:24:38.767Z,74.44
2022-10-18T05:27:06.163Z,73.65
2022-10-18T05:29:33.551Z,74.19
2022-10-18T05:32:01.230Z,74.33
2022-10-18T05:34:31.936Z,74.08
2022-10-18T05:37:00.242Z,74.38
2022-10-18T05:39:28.005Z,74.56
2022-10-18T05:41:55.374Z,75.03
2022-10-18T05:44:22.779Z,75.28
2022-10-18T05:46:50.530Z,75.18
2022-10-18T05:49:18.054Z,75.65
2022-10-18T05:51:45.456Z,75.74
2022-10-18T05:54:13.412Z,75.80
2022-10-18T05:56:41.720Z,75.56
2022-10-18T05:59:12.389Z,75.38
2022-10-18T06:01:42.006Z,75.20
2022-10-18T06:04:10.411Z,75.73
2022-10-18T06:06:38.643Z,75.28
2022-10-18T06:09:08.008Z,75.50
2022-10-18T06:11:37.016Z,75.45
2022-10-18T06:14:05.034Z,74.89
2022-10-18T06:16:32.907Z,74.71
2022-10-18T06:19:00.751Z,74.76
2022-10-18T06:21:28.303Z,74.15
2022-10-18T06:23:58.647Z,73.93
2022-10-18T06:26:27.897Z,73.29
2022-10-18T06:28:55.409Z,73.26
2022-10-18T06:31:22.968Z,72.59
2022-10-18T06:33:50.879Z,72.02
2022-10-18T06:36:22.056Z,72.07
2022-10-18T06:38:50.360Z,71.42
2022-10-18T06:41:19.326Z,70.69
2022-10-18T06:43:56.809Z,69.95
2022-10-18T06:46:25.842Z,69.79
2022-10-18T06:48:53.236Z,68.19
2022-10-18T06:51:20.631Z,66.85
2022-10-18T06:54:05.898Z,65.68
2022-10-18T06:56:36.392Z,65.15
2022-10-18T06:59:04.869Z,63.86
2022-10-18T07:01:32.319Z,63.37
2022-10-18T07:03:59.884Z,62.25
2022-10-18T07:06:27.632Z,62.21
2022-10-18T07:08:55.053Z,61.73
2022-10-18T07:11:25.363Z,61.62
2022-10-18T07:14:02.329Z,61.84
2022-10-18T07:16:30.466Z,62.06
2022-10-18T07:18:58.362Z,61.26
2022-10-18T07:21:26.547Z,60.39
2022-10-18T07:23:54.403Z,59.71
2022-10-18T07:26:23.748Z,58.44
2022-10-18T07:28:58.054Z,58.19
2022-10-18T07:31:26.700Z,57.66
2022-10-18T07:33:54.382Z,56.83
2022-10-18T07:36:22.278Z,55.83
2022-10-18T07:38:52.021Z,55.22
2022-10-18T07:41:20.162Z,54.71
2022-10-18T07:43:51.002Z,54.05
2022-10-18T07:46:20.500Z,53.00
2022-10-18T07:48:47.918Z,52.25
2022-10-18T07:51:15.893Z,51.74
2022-10-18T07:53:43.830Z,49.93
2022-10-18T07:56:18.080Z,49.66
2022-10-18T07:58:53.811Z,47.86
2022-10-18T08:01:22.918Z,48.23
2022-10-18T08:03:51.506Z,45.89
2022-10-18T08:06:20.292Z,44.56
2022-10-18T08:08:48.339Z,44.64
2022-10-18T08:11:19.493Z,44.20
2022-10-18T08:13:47.043Z,43.41
2022-10-18T08:16:20.941Z,43.85
2022-10-18T08:18:49.227Z,42.73
2022-10-18T08:21:18.794Z,41.47
2022-10-18T08:23:46.664Z,41.38
2022-10-18T08:26:19.927Z,40.23
2022-10-18T08:28:53.909Z,40.15
2022-10-18T08:31:26.290Z,40.77
2022-10-18T08:33:57.090Z,39.81
2022-10-18T08:36:25.122Z,39.27
2022-10-18T08:38:52.843Z,39.96
2022-10-18T08:41:32.070Z,40.06
2022-10-18T08:44:04.772Z,39.06
2022-10-18T08:46:37.595Z,38.20
2022-10-18T08:49:10.970Z,38.33
2022-10-18T08:51:46.752Z,38.31
2022-10-18T08:54:18.194Z,38.84
2022-10-18T08:56:58.165Z,38.75
2022-10-18T08:59:25.957Z,38.05
2022-10-18T09:02:23.507Z,38.59
2022-10-18T09:05:01.307Z,37.60
2022-10-18T09:07:56.463Z,36.34
2022-10-18T09:10:45.066Z,36.73
2022-10-18T09:13:42.280Z,38.38
2022-10-18T09:16:27.927Z,38.27
2022-10-18T09:19:13.785Z,37.62
2022-10-18T09:22:25.065Z,37.28
2022-10-18T09:25:11.456Z,36.47
2022-10-18T09:27:52.677Z,35.72
2022-10-18T09:30:32.995Z,35.24
2022-10-18T09:33:09.680Z,34.64
2022-10-18T09:35:50.816Z,34.89
2022-10-18T09:38:23.330Z,35.37
2022-10-18T09:40:59.798Z,33.83
2022-10-18T09:43:51.794Z,33.33
2022-10-18T09:46:21.534Z,32.89
2022-10-18T09:48:58.066Z,34.16
2022-10-18T09:51:29.598Z,33.00
2022-10-18T09:54:29.391Z,33.00
2022-10-18T09:57:08.367Z,34.06
2022-10-18T09:59:45.185Z,33.05
2022-10-18T10:02:15.539Z,32.99
2022-10-18T10:04:43.399Z,32.93
2022-10-18T10:07:35.444Z,33.05
2022-10-18T10:10:08.730Z,34.44
2022-10-18T10:12:39.179Z,33.73
2022-10-18T10:15:22.781Z,34.19
2022-10-18T10:17:58.903Z,33.60
2022-10-18T10:20:42.476Z,33.03
2022-10-18T10:23:44.602Z,35.00
2022-10-18T10:26:27.295Z,33.91
2022-10-18T10:28:54.950Z,34.40
2022-10-18T10:31:25.361Z,34.17
2022-10-18T10:34:01.311Z,34.55
2022-10-18T10:36:30.369Z,33.91
2022-10-18T10:39:16.235Z,33.55
2022-10-18T10:41:47.137Z,35.39
2022-10-18T10:44:20.235Z,36.06
2022-10-18T10:46:50.403Z,35.05
2022-10-18T10:52:28.080Z,36.10
2022-10-18T10:57:50.868Z,35.83
2022-10-18T11:00:42.855Z,35.87
2022-10-18T11:03:30.004Z,36.16
2022-10-18T11:06:00.489Z,35.79
2022-10-18T11:08:35.949Z,36.17
2022-10-18T11:11:26.883Z,35.16
2022-10-18T11:17:17.159Z,34.27
2022-10-18T11:19:52.820Z,33.37
2022-10-18T11:22:24.268Z,32.39
2022-10-18T11:24:52.094Z,32.96
2022-10-18T11:27:29.602Z,32.74
2022-10-18T11:30:29.023Z,32.56
2022-10-18T11:33:14.967Z,32.52
2022-10-18T11:36:21.364Z,31.60
2022-10-18T11:39:02.681Z,32.22
2022-10-18T11:41:51.704Z,32.89
2022-10-18T11:44:28.423Z,32.54
2022-10-18T11:47:19.683Z,31.12
2022-10-18T11:50:39.967Z,32.17
2022-10-18T11:53:10.270Z,31.24
2022-10-18T11:56:25.376Z,31.62
2022-10-18T11:59:13.288Z,31.03
2022-10-18T12:02:08.642Z,31.67
2022-10-18T12:04:49.096Z,32.15
2022-10-18T12:07:38.081Z,31.74
2022-10-18T12:10:09.728Z,31.22
2022-10-18T12:12:52.081Z,30.47
2022-10-18T12:15:25.638Z,32.34
2022-10-18T12:18:00.752Z,32.57
2022-10-18T12:20:54.380Z,30.28
2022-10-18T12:23:44.420Z,31.33
2022-10-18T12:26:12.465Z,30.50
2022-10-18T12:28:51.775Z,30.93
2022-10-18T12:31:27.701Z,31.44
2022-10-18T12:33:58.802Z,31.00
2022-10-18T12:36:48.144Z,32.80
2022-10-18T12:40:09.177Z,31.78
2022-10-18T12:42:47.038Z,30.78
2022-10-18T12:45:25.848Z,30.91
2022-10-18T12:47:55.325Z,32.50
2022-10-18T12:50:36.979Z,31.41
2022-10-18T12:53:10.776Z,30.92
2022-10-18T12:55:49.741Z,30.69
2022-10-18T12:58:32.132Z,31.42
2022-10-18T13:01:05.518Z,31.91
2022-10-18T13:03:57.139Z,32.52
2022-10-18T13:06:24.983Z,32.12
2022-10-18T13:09:19.017Z,31.23
2022-10-18T13:11:46.546Z,30.40
2022-10-18T13:14:49.393Z,30.60
2022-10-18T13:17:59.016Z,30.96
2022-10-18T13:20:38.591Z,30.56
2022-10-18T13:23:36.957Z,31.89
2022-10-18T13:26:20.462Z,32.01
2022-10-18T13:28:56.382Z,32.51
2022-10-18T13:31:37.692Z,31.70
2022-10-18T13:34:18.692Z,32.85
2022-10-18T13:36:56.780Z,32.68
2022-10-18T13:39:25.257Z,32.31
2022-10-18T13:41:58.802Z,33.01
2022-10-18T13:44:48.181Z,32.69
2022-10-18T13:47:33.724Z,33.58
2022-10-18T13:50:18.314Z,33.24
2022-10-18T13:53:29.389Z,33.69
2022-10-18T13:56:22.801Z,33.47
2022-10-18T13:59:15.399Z,32.96
2022-10-18T14:01:54.540Z,33.04
2022-10-18T14:04:39.793Z,33.19
2022-10-18T14:07:09.198Z,32.51
2022-10-18T14:09:52.415Z,33.96
2022-10-18T14:12:28.734Z,34.26
2022-10-18T14:15:07.685Z,35.48
2022-10-18T14:18:00.237Z,34.39
2022-10-18T14:20:30.308Z,35.48
2022-10-18T14:23:09.488Z,34.93
2022-10-18T14:25:38.599Z,34.77
2022-10-18T14:28:14.999Z,35.47
2022-10-18T14:31:09.295Z,35.12
2022-10-18T14:33:44.918Z,35.46
2022-10-18T14:36:21.969Z,35.28
2022-10-18T14:39:00.682Z,35.91
2022-10-18T14:41:30.845Z,35.08
2022-10-18T14:44:16.329Z,35.60
2022-10-18T14:46:44.984Z,35.41
2022-10-18T14:49:14.116Z,36.56
2022-10-18T14:51:43.981Z,36.26
2022-10-18T14:54:16.407Z,37.21
2022-10-18T14:56:44.751Z,36.42
2022-10-18T14:59:31.109Z,36.46
2022-10-18T15:02:02.145Z,36.43
2022-10-18T15:04:33.229Z,37.21
2022-10-18T15:07:06.547Z,38.06
2022-10-18T15:09:36.570Z,38.79
2022-10-18T15:12:06.654Z,38.63
2022-10-18T15:14:35.707Z,39.94
2022-10-18T15:17:08.390Z,38.99
2022-10-18T15:19:39.571Z,38.82
2022-10-18T15:22:30.948Z,39.70
2022-10-18T15:25:14.654Z,41.46
2022-10-18T15:27:46.380Z,40.86
2022-10-18T15:30:25.541Z,42.00
2022-10-18T15:32:56.289Z,42.88
2022-10-18T15:35:30.936Z,43.92
2022-10-18T15:38:02.532Z,43.97
2022-10-18T15:40:36.504Z,44.49
2022-10-18T15:43:25.767Z,44.65
2022-10-18T15:46:00.137Z,45.45
2022-10-18T15:48:37.824Z,46.42
2022-10-18T15:51:08.671Z,46.30
2022-10-18T15:54:05.189Z,46.23
2022-10-18T15:56:40.119Z,45.75
2022-10-18T15:59:23.815Z,45.81
2022-10-18T16:01:51.874Z,45.64
2022-10-18T16:04:26.602Z,45.88
2022-10-18T16:06:55.685Z,46.55
2022-10-18T16:09:25.873Z,47.86
2022-10-18T16:11:57.263Z,47.38
2022-10-18T16:14:26.083Z,48.09
2022-10-18T16:16:56.628Z,53.64
2022-10-18T16:19:24.409Z,53.29
2022-10-18T16:21:53.974Z,55.55
2022-10-18T16:24:22.302Z,55.86
2022-10-18T16:26:50.479Z,57.63
2022-10-18T16:29:28.521Z,56.49
2022-10-18T16:31:58.331Z,59.48
2022-10-18T16:34:27.288Z,59.39
2022-10-18T16:36:55.320Z,59.44
2022-10-18T16:39:23.564Z,60.90
2022-10-18T16:41:51.780Z,62.58
2022-10-18T16:44:19.553Z,56.60
2022-10-18T16:46:51.057Z,58.54
2022-10-18T16:49:26.170Z,56.94
2022-10-18T16:51:54.367Z,59.39
2022-10-18T16:54:22.925Z,61.36
2022-10-18T16:56:50.575Z,62.93
2022-10-18T16:59:26.304Z,62.48
2022-10-18T17:01:54.421Z,62.61
2022-10-18T17:04:21.941Z,61.81
2022-10-18T17:06:49.606Z,63.27
2022-10-18T17:09:17.430Z,60.99
2022-10-18T17:11:44.842Z,61.14
2022-10-18T17:14:12.228Z,62.18
2022-10-18T17:16:39.973Z,63.66
2022-10-18T17:19:10.607Z,62.78
2022-10-18T17:21:38.083Z,63.98
2022-10-18T17:24:06.304Z,63.84
2022-10-18T17:26:34.418Z,62.16
2022-10-18T17:29:05.870Z,60.85
2022-10-18T17:31:35.580Z,62.60
2022-10-18T17:34:03.787Z,63.77
2022-10-18T17:36:32.499Z,63.59
2022-10-18T17:39:00.597Z,63.96
2022-10-18T17:41:28.070Z,64.06
2022-10-18T17:43:55.532Z,60.93
2022-10-18T17:46:23.794Z,60.53
2022-10-18T17:48:51.288Z,63.77
2022-10-18T17:51:18.784Z,64.31
2022-10-18T17:53:46.634Z,64.23
2022-10-18T17:56:15.011Z,64.62
2022-10-18T17:58:46.895Z,63.54
2022-10-18T18:01:23.003Z,63.77
2022-10-18T18:03:55.496Z,64.22
2022-10-18T18:06:31.386Z,63.74
2022-10-18T18:09:00.790Z,63.98
2022-10-18T18:11:28.925Z,64.13
2022-10-18T18:13:56.683Z,64.90
2022-10-18T18:16:27.132Z,64.98
2022-10-18T18:18:57.097Z,64.99
2022-10-18T18:21:26.820Z,65.17
2022-10-18T18:23:55.128Z,65.04
2022-10-18T18:26:23.003Z,66.13
2022-10-18T18:28:50.912Z,65.66
2022-10-18T18:31:23.573Z,64.74
2022-10-18T18:33:53.493Z,65.16
2022-10-18T18:36:22.389Z,65.25
2022-10-18T18:38:55.487Z,65.75
2022-10-18T18:41:27.730Z,65.08
2022-10-18T18:43:57.701Z,64.77
2022-10-18T18:46:27.804Z,65.09
2022-10-18T18:48:57.778Z,67.02
2022-10-18T18:51:28.939Z,66.84
2022-10-18T18:53:56.375Z,66.21
2022-10-18T18:56:26.196Z,66.85
2022-10-18T18:58:54.624Z,66.78
2022-10-18T19:01:25.327Z,68.28
2022-10-18T19:03:54.490Z,68.23
2022-10-18T19:06:28.834Z,68.42
2022-10-18T19:09:01.328Z,68.50
2022-10-18T19:11:33.618Z,68.45
2022-10-18T19:14:02.527Z,69.14
2022-10-18T19:16:31.596Z,68.72
2022-10-18T19:19:07.046Z,68.94
2022-10-18T19:21:37.599Z,69.19
2022-10-18T19:24:06.493Z,69.29
2022-10-18T19:26:50.036Z,68.86
2022-10-18T19:29:29.009Z,69.67
2022-10-18T19:31:59.456Z,69.69
2022-10-18T19:34:28.856Z,68.79
2022-10-18T19:36:57.110Z,69.22
2022-10-18T19:39:32.880Z,68.87
2022-10-18T19:42:03.483Z,69.72
2022-10-18T19:44:32.499Z,69.01
2022-10-18T19:47:00.409Z,69.51
2022-10-18T19:49:28.773Z,70.14
2022-10-18T19:51:57.017Z,69.69
2022-10-18T19:54:25.258Z,68.97
2022-10-18T19:56:52.705Z,69.01
2022-10-18T19:59:21.261Z,69.11
2022-10-18T20:01:49.157Z,69.10
2022-10-18T20:04:16.994Z,69.55
2022-10-18T20:06:44.875Z,69.68
2022-10-18T20:09:16.265Z,69.47
2022-10-18T20:11:52.229Z,68.87
2022-10-18T20:14:20.154Z,69.03
2022-10-18T20:16:47.920Z,68.11
2022-10-18T20:19:15.335Z,68.49
2022-10-18T20:21:42.752Z,68.73
2022-10-18T20:24:11.112Z,69.89
2022-10-18T20:26:39.640Z,69.92
2022-10-18T20:29:07.947Z,70.27
2022-10-18T20:31:38.496Z,71.05
2022-10-18T20:34:11.934Z,71.66
2022-10-18T20:36:40.377Z,71.56
2022-10-18T20:39:08.190Z,70.82
2022-10-18T20:41:38.624Z,70.91
2022-10-18T20:44:10.638Z,71.60
2022-10-18T20:46:39.171Z,71.12
2022-10-18T20:49:08.484Z,70.54
2022-10-18T20:51:35.915Z,70.43
2022-10-18T20:56:38.828Z,71.38
2022-10-18T20:59:09.472Z,71.37
2022-10-18T21:01:39.029Z,71.67
2022-10-18T21:04:10.079Z,71.37
2022-10-18T21:06:40.999Z,71.47
2022-10-18T21:09:10.179Z,71.95
2022-10-18T21:11:39.959Z,71.24
2022-10-18T21:14:10.655Z,72.03
2022-10-18T21:16:38.392Z,72.31
2022-10-18T21:19:21.210Z,72.19
2022-10-18T21:21:51.555Z,72.81
2022-10-18T21:24:20.669Z,72.96
2022-10-18T21:26:48.814Z,72.57
2022-10-18T21:29:21.554Z,72.68
2022-10-18T21:31:52.378Z,72.88
2022-10-18T21:34:20.598Z,72.98
2022-10-18T21:36:48.682Z,72.62
2022-10-18T21:39:25.507Z,73.03
2022-10-18T21:41:53.268Z,72.68
2022-10-18T21:44:20.720Z,72.71
2022-10-18T21:46:48.206Z,72.71
2022-10-18T21:49:16.537Z,72.20
2022-10-18T21:51:44.634Z,71.91
2022-10-18T21:54:14.562Z,71.78
2022-10-18T21:56:42.498Z,72.11
2022-10-18T21:59:12.140Z,72.73
2022-10-18T22:01:40.278Z,71.66
2022-10-18T22:04:18.919Z,72.02
2022-10-18T22:06:46.403Z,72.23
2022-10-18T22:09:14.340Z,72.32
2022-10-18T22:11:47.743Z,72.41
2022-10-18T22:14:15.520Z,72.27
2022-10-18T22:16:43.147Z,72.34
2022-10-18T22:19:10.596Z,72.36
2022-10-18T22:21:38.271Z,72.08
2022-10-18T22:24:08.137Z,72.94
2022-10-18T22:26:38.926Z,72.96
2022-10-18T22:29:10.304Z,73.44
2022-10-18T22:31:40.377Z,73.51
2022-10-18T22:34:11.592Z,73.59
2022-10-18T22:36:39.235Z,73.81
2022-10-18T22:39:07.395Z,73.87
2022-10-18T22:41:36.072Z,73.60
2022-10-18T22:44:04.095Z,74.04
2022-10-18T22:46:33.050Z,74.25
2022-10-18T22:49:00.828Z,74.43
2022-10-18T22:51:28.229Z,74.27
2022-10-18T22:53:56.016Z,74.13
2022-10-18T22:56:23.937Z,74.63
2022-10-18T22:58:51.499Z,74.73
2022-10-18T23:01:21.520Z,75.07
2022-10-18T23:03:56.674Z,75.05
2022-10-18T23:06:32.940Z,74.78
2022-10-18T23:09:05.054Z,74.47
2022-10-18T23:11:33.697Z,74.65
2022-10-18T23:14:03.786Z,74.68
2022-10-18T23:16:31.731Z,74.92
2022-10-18T23:18:59.863Z,74.91
2022-10-18T23:21:28.831Z,75.01
2022-10-18T23:23:57.141Z,75.03
2022-10-18T23:26:26.744Z,75.42
2022-10-18T23:28:54.967Z,75.23
2022-10-18T23:31:25.947Z,75.68
2022-10-18T23:33:56.358Z,75.46
2022-10-18T23:36:24.557Z,74.94
2022-10-18T23:38:52.643Z,74.83
2022-10-18T23:41:20.400Z,75.02
2022-10-18T23:43:47.941Z,75.09
2022-10-18T23:46:16.782Z,75.34
2022-10-18T23:48:44.595Z,75.34
2022-10-18T23:51:12.227Z,75.55
2022-10-18T23:53:40.120Z,75.34
2022-10-18T23:56:13.443Z,75.62
2022-10-18T23:58:41.276Z,75.27
